WADD/DPS METAR and TAF weather

Enter ICAO airport designator
Station Type Date Time Source
WADD METAR 2020/07/14 21:00 UTC NOAA

WADD 142100Z 11014KT 9999 BKN016 26/26 Q1009 NOSIG


Station Type Date Time Source
WADD Decoded METAR 2020/07/14 21:00 UTC NOAA

Station name not available
Jul 14, 2020 - 05:00 PM EDT / 2020.07.14 2100 UTC
Wind: from the ESE (110 degrees) at 16 MPH (14 KT):0
Visibility: greater than 7 mile(s):0
Sky conditions: mostly cloudy
Temperature: 78 F (26 C)
Dew Point: 78 F (26 C)
Relative Humidity: 100%
Pressure (altimeter): 29.80 in. Hg (1009 hPa)
ob: WADD 142100Z 11014KT 9999 BKN016 26/26 Q1009 NOSIG
cycle: 21

Station Type Date Time Source
WADD TAF 2020/07/14 18:09 UTC NOAA

TAF TAF WADD 141700Z 1418/1518 12013KT 9999 SCT017
TEMPO 1418/1422 BKN016

Example: see airport list